Time;durP1;ratioP1;P1;durP2;ratioP2;P2;SDS_P1;SDS_P2;PMS_P1;PMS_P2;Temp;Humidity;BMP_temperature;BMP_pressure;BME280_temperature;BME280_humidity;BME280_pressure;Samples;Min_cycle;Max_cycle;Signal;HPM_P1;HPM_P2
2022/08/19 00:01:19;;;;;;;0.30;0.30;;;16.50;99.90;;;;;;5109697;27;20562;-81
2022/08/19 00:03:45;;;;;;;0.40;0.40;;;16.40;99.90;;;;;;5092007;27;20047;-81
2022/08/19 00:06:11;;;;;;;0.40;0.40;;;16.30;99.90;;;;;;5087807;27;20227;-81
2022/08/19 00:08:37;;;;;;;0.40;0.40;;;16.30;99.90;;;;;;5090717;27;20134;-81
2022/08/19 00:11:02;;;;;;;0.40;0.40;;;16.30;99.90;;;;;;5107513;27;20043;-81
2022/08/19 00:13:28;;;;;;;0.40;0.40;;;16.30;99.90;;;;;;5071055;27;20116;-82
2022/08/19 00:15:55;;;;;;;0.50;0.50;;;16.30;99.90;;;;;;5092358;27;20484;-81
2022/08/19 00:18:21;;;;;;;0.40;0.40;;;16.30;99.90;;;;;;5069610;27;20047;-81
2022/08/19 00:20:47;;;;;;;0.47;0.47;;;16.30;99.90;;;;;;5109824;27;20081;-81
2022/08/19 00:23:12;;;;;;;0.60;0.60;;;16.20;99.90;;;;;;5090422;27;20034;-81
2022/08/19 00:25:39;;;;;;;0.30;0.30;;;16.20;99.90;;;;;;5088736;27;20074;-81
2022/08/19 00:28:05;;;;;;;0.30;0.30;;;16.20;99.90;;;;;;5107308;27;20403;-81
2022/08/19 00:30:30;;;;;;;0.40;0.40;;;16.10;99.90;;;;;;5073210;27;20043;-81
2022/08/19 00:32:57;;;;;;;0.40;0.40;;;16.00;99.90;;;;;;5063527;27;20466;-81
2022/08/19 00:35:23;;;;;;;0.30;0.30;;;15.90;99.90;;;;;;5109276;27;20491;-81
2022/08/19 00:37:50;;;;;;;0.40;0.40;;;15.90;99.90;;;;;;5107974;27;20051;-81
2022/08/19 00:40:19;;;;;;;0.40;0.40;;;15.70;99.90;;;;;;5108059;27;20068;-81
2022/08/19 00:42:45;;;;;;;0.40;0.40;;;15.80;99.90;;;;;;5094995;27;20487;-81
2022/08/19 00:45:17;;;;;;;0.38;0.38;;;15.90;99.90;;;;;;5108703;27;20050;-81
2022/08/19 00:47:44;;;;;;;0.30;0.30;;;15.90;99.90;;;;;;5106874;27;20531;-81
2022/08/19 00:50:15;;;;;;;0.30;0.30;;;16.00;99.90;;;;;;5090607;27;20065;-81
2022/08/19 00:52:45;;;;;;;0.30;0.30;;;15.90;99.90;;;;;;5108718;27;20053;-81
2022/08/19 00:55:16;;;;;;;0.40;0.40;;;15.90;99.90;;;;;;5107652;27;20748;-81
2022/08/19 00:57:45;;;;;;;0.40;0.40;;;15.90;99.90;;;;;;5088928;28;20712;-81
2022/08/19 01:00:15;;;;;;;0.40;0.40;;;15.70;99.90;;;;;;5105286;27;20047;-81
2022/08/19 01:02:42;;;;;;;0.40;0.40;;;15.70;99.90;;;;;;5069094;27;20053;-81
2022/08/19 01:05:22;;;;;;;0.40;0.40;;;15.60;99.90;;;;;;5108412;27;20732;-81
2022/08/19 01:07:50;;;;;;;0.40;0.40;;;15.50;99.90;;;;;;5089685;28;20074;-80
2022/08/19 01:10:20;;;;;;;0.40;0.40;;;15.30;99.90;;;;;;5108634;27;20043;-81
2022/08/19 01:12:48;;;;;;;0.40;0.40;;;15.40;99.90;;;;;;5108815;27;20691;-81
2022/08/19 01:15:20;;;;;;;0.40;0.40;;;15.30;99.90;;;;;;5106170;27;20051;-81
2022/08/19 01:17:48;;;;;;;0.40;0.40;;;15.40;99.90;;;;;;5087695;28;20054;-80
2022/08/19 01:20:23;;;;;;;0.30;0.30;;;15.30;99.90;;;;;;5087871;28;20499;-81
2022/08/19 01:22:55;;;;;;;0.40;0.40;;;15.30;99.90;;;;;;5109436;27;20793;-81
2022/08/19 01:25:31;;;;;;;0.40;0.40;;;15.40;99.90;;;;;;5091285;27;20053;-81
2022/08/19 01:27:57;;;;;;;0.40;0.40;;;15.50;99.90;;;;;;5108334;28;20078;-81
2022/08/19 01:30:28;;;;;;;0.40;0.40;;;15.50;99.90;;;;;;5088545;28;20047;-81
2022/08/19 01:32:54;;;;;;;0.40;0.40;;;15.40;99.90;;;;;;5104597;28;20051;-81
2022/08/19 01:35:23;;;;;;;0.35;0.35;;;15.40;99.90;;;;;;5105870;28;20043;-81
2022/08/19 01:38:02;;;;;;;0.40;0.40;;;15.30;99.90;;;;;;5089810;28;20043;-81
2022/08/19 01:40:31;;;;;;;0.40;0.40;;;15.30;99.90;;;;;;5087684;28;20283;-81
2022/08/19 01:42:57;;;;;;;0.40;0.40;;;15.30;99.90;;;;;;5107380;28;20047;-81
2022/08/19 01:45:25;;;;;;;0.50;0.50;;;15.20;99.90;;;;;;5109722;27;20095;-82
2022/08/19 01:47:52;;;;;;;0.30;0.30;;;15.30;99.90;;;;;;5108064;28;20039;-82
2022/08/19 01:50:18;;;;;;;0.38;0.38;;;15.30;99.90;;;;;;5109370;28;20047;-82
2022/08/19 01:52:44;;;;;;;0.40;0.40;;;15.30;99.90;;;;;;5058211;28;20047;-81
2022/08/19 01:55:14;;;;;;;0.30;0.30;;;15.30;99.90;;;;;;5073314;28;20079;-82
2022/08/19 01:57:43;;;;;;;0.40;0.40;;;15.50;99.90;;;;;;5109114;28;20053;-82
2022/08/19 02:00:13;;;;;;;0.30;0.30;;;15.40;99.90;;;;;;5089928;28;20134;-81
2022/08/19 02:02:39;;;;;;;0.30;0.30;;;15.40;99.90;;;;;;5108060;28;20039;-81
2022/08/19 02:05:07;;;;;;;0.40;0.40;;;15.40;99.90;;;;;;5105813;28;20706;-81
2022/08/19 02:07:33;;;;;;;0.40;0.40;;;15.30;99.90;;;;;;5107578;28;20088;-81
2022/08/19 02:10:06;;;;;;;0.50;0.50;;;15.40;99.90;;;;;;5106062;28;20074;-81
2022/08/19 02:12:32;;;;;;;0.40;0.40;;;15.30;99.90;;;;;;5108288;28;20043;-81
2022/08/19 02:15:00;;;;;;;0.32;0.32;;;15.20;99.90;;;;;;5087279;28;20047;-81
2022/08/19 02:17:28;;;;;;;0.40;0.40;;;15.20;99.90;;;;;;5104192;28;20044;-82
2022/08/19 02:19:57;;;;;;;0.40;0.40;;;15.20;99.90;;;;;;5088395;28;20047;-82
2022/08/19 02:22:25;;;;;;;0.40;0.40;;;15.20;99.90;;;;;;5107080;28;20266;-82
2022/08/19 02:24:52;;;;;;;0.60;0.60;;;15.30;99.90;;;;;;5107138;28;20460;-82
2022/08/19 02:27:18;;;;;;;0.40;0.40;;;15.40;99.90;;;;;;5071237;28;20154;-82
2022/08/19 02:29:46;;;;;;;0.40;0.40;;;15.40;99.90;;;;;;5108291;28;20131;-82
2022/08/19 02:32:11;;;;;;;0.30;0.30;;;15.40;99.90;;;;;;5086970;28;20035;-82
2022/08/19 02:34:37;;;;;;;2.15;0.70;;;15.40;99.90;;;;;;5091358;27;20082;-81
2022/08/19 02:37:03;;;;;;;0.40;0.40;;;15.40;99.90;;;;;;5091111;27;20047;-82
2022/08/19 02:39:29;;;;;;;0.40;0.40;;;15.40;99.90;;;;;;5110326;27;20054;-81
2022/08/19 02:41:54;;;;;;;0.40;0.40;;;15.30;99.90;;;;;;5091184;27;20062;-81
2022/08/19 02:44:20;;;;;;;0.40;0.40;;;15.30;99.90;;;;;;5091981;27;20054;-81
2022/08/19 02:46:47;;;;;;;0.40;0.40;;;15.20;99.90;;;;;;5112276;27;20062;-81
2022/08/19 02:49:16;;;;;;;0.40;0.40;;;15.20;99.90;;;;;;5090243;27;20058;-81
2022/08/19 02:51:44;;;;;;;0.40;0.40;;;15.10;99.90;;;;;;5090234;27;20043;-81
2022/08/19 02:54:12;;;;;;;0.38;0.38;;;15.00;99.90;;;;;;5108700;27;20463;-81
2022/08/19 02:56:40;;;;;;;0.35;0.35;;;14.90;99.90;;;;;;5110177;27;20035;-81
2022/08/19 02:59:09;;;;;;;0.40;0.40;;;14.70;99.90;;;;;;5090479;27;20039;-81
2022/08/19 03:01:35;;;;;;;0.40;0.40;;;14.70;99.90;;;;;;5093672;27;20031;-81
2022/08/19 03:04:04;;;;;;;0.40;0.40;;;14.70;99.90;;;;;;5109564;27;20039;-81
2022/08/19 03:06:31;;;;;;;0.40;0.40;;;14.80;99.90;;;;;;5108476;27;20535;-81
2022/08/19 03:08:57;;;;;;;0.40;0.40;;;14.80;99.90;;;;;;5092493;27;20076;-81
2022/08/19 03:11:26;;;;;;;0.40;0.40;;;14.70;99.90;;;;;;5108786;27;20183;-80
2022/08/19 03:13:54;;;;;;;0.30;0.30;;;14.40;99.90;;;;;;5092043;27;20134;-81
2022/08/19 03:16:21;;;;;;;0.50;0.50;;;14.40;99.90;;;;;;5109165;27;20047;-81
2022/08/19 03:18:47;;;;;;;0.40;0.40;;;14.40;99.90;;;;;;5109180;27;20051;-81
2022/08/19 03:21:25;;;;;;;0.40;0.40;;;14.30;99.90;;;;;;5110213;27;20118;-81
2022/08/19 03:23:54;;;;;;;0.40;0.40;;;14.20;99.90;;;;;;5110162;27;20081;-82
2022/08/19 03:26:19;;;;;;;0.40;0.40;;;14.30;99.90;;;;;;5108699;27;20062;-81
2022/08/19 03:28:49;;;;;;;0.30;0.30;;;14.20;99.90;;;;;;5109227;27;20055;-81
2022/08/19 03:31:18;;;;;;;0.40;0.40;;;14.30;99.90;;;;;;5075802;27;20050;-81
2022/08/19 03:33:45;;;;;;;0.45;0.45;;;14.30;99.90;;;;;;5093291;27;20043;-82
2022/08/19 03:36:15;;;;;;;0.40;0.40;;;14.30;99.90;;;;;;5093010;27;20050;-82
2022/08/19 03:38:44;;;;;;;0.60;0.60;;;14.20;99.90;;;;;;5092385;27;20055;-81
2022/08/19 03:41:15;;;;;;;0.43;0.43;;;14.30;99.90;;;;;;5091098;27;20066;-82
2022/08/19 03:43:42;;;;;;;0.40;0.40;;;14.20;99.90;;;;;;5091559;27;20069;-82
2022/08/19 03:46:11;;;;;;;0.40;0.40;;;14.10;99.90;;;;;;5087613;27;20043;-82
2022/08/19 03:48:38;;;;;;;0.40;0.40;;;14.20;99.90;;;;;;5089452;27;20093;-82
2022/08/19 03:51:05;;;;;;;0.40;0.40;;;14.10;99.90;;;;;;5091142;27;20051;-82
2022/08/19 03:53:33;;;;;;;0.40;0.40;;;14.10;99.90;;;;;;5111946;27;20035;-82
2022/08/19 03:56:02;;;;;;;0.40;0.40;;;14.10;99.90;;;;;;5088382;27;20061;-82
2022/08/19 03:58:29;;;;;;;0.50;0.50;;;14.10;99.90;;;;;;5089500;27;20055;-82
2022/08/19 04:00:56;;;;;;;0.40;0.40;;;14.10;99.90;;;;;;5090410;27;20054;-82
2022/08/19 04:03:26;;;;;;;0.40;0.40;;;14.10;99.90;;;;;;5107456;27;20121;-82
2022/08/19 04:05:53;;;;;;;0.40;0.40;;;14.00;99.90;;;;;;5056922;27;20039;-82
2022/08/19 04:08:20;;;;;;;0.40;0.40;;;14.00;99.90;;;;;;5089403;27;20043;-82
2022/08/19 04:10:48;;;;;;;0.40;0.40;;;14.00;99.90;;;;;;5072877;27;20050;-82
2022/08/19 04:13:16;;;;;;;0.40;0.40;;;14.00;99.90;;;;;;5072895;27;20043;-82
2022/08/19 04:15:43;;;;;;;0.75;0.75;;;14.00;99.90;;;;;;5091385;27;20055;-82
2022/08/19 04:18:10;;;;;;;0.40;0.40;;;14.00;99.90;;;;;;5107511;27;20053;-83
2022/08/19 04:20:44;;;;;;;0.40;0.40;;;14.00;99.90;;;;;;5090650;27;20047;-82
2022/08/19 04:23:09;;;;;;;;;;;14.00;99.90;;;;;;5089036;27;20047;-82
2022/08/19 04:25:38;;;;;;;0.50;0.50;;;14.00;99.90;;;;;;5072773;27;20414;-82
2022/08/19 04:28:12;;;;;;;0.40;0.40;;;13.90;99.90;;;;;;5092043;27;20047;-82
2022/08/19 04:30:45;;;;;;;0.40;0.40;;;13.80;99.90;;;;;;5090434;27;20047;-82
2022/08/19 04:33:12;;;;;;;0.40;0.40;;;13.80;99.90;;;;;;5071607;27;20050;-81
2022/08/19 04:35:44;;;;;;;0.40;0.40;;;13.80;99.90;;;;;;5089688;27;20054;-82
2022/08/19 04:38:11;;;;;;;0.40;0.40;;;13.80;99.90;;;;;;5071296;27;20047;-82
2022/08/19 04:43:34;;;;;;;0.40;0.40;;;13.70;99.90;;;;;;5106776;27;20444;-83
2022/08/19 04:46:06;;;;;;;0.40;0.40;;;13.70;99.90;;;;;;5089729;27;20043;-84
2022/08/19 04:48:32;;;;;;;0.40;0.40;;;13.70;99.90;;;;;;5071923;27;20560;-83
2022/08/19 04:50:58;;;;;;;0.40;0.40;;;13.70;99.90;;;;;;5089043;27;20052;-84
2022/08/19 04:53:34;;;;;;;0.50;0.50;;;13.70;99.90;;;;;;5089738;27;20067;-84
2022/08/19 04:56:06;;;;;;;0.40;0.40;;;13.70;99.90;;;;;;5089619;27;20079;-84
2022/08/19 04:58:32;;;;;;;0.40;0.40;;;13.70;99.90;;;;;;5088293;27;20043;-83
2022/08/19 05:00:59;;;;;;;0.50;0.50;;;13.70;99.90;;;;;;5054432;27;20053;-84
2022/08/19 05:03:25;;;;;;;0.50;0.50;;;13.70;99.90;;;;;;5088965;27;20138;-83
2022/08/19 05:05:52;;;;;;;0.40;0.40;;;13.80;99.90;;;;;;5071625;28;20103;-83
2022/08/19 05:08:20;;;;;;;0.40;0.40;;;14.00;99.90;;;;;;5087582;27;20042;-82
2022/08/19 05:10:51;;;;;;;0.40;0.40;;;14.70;99.90;;;;;;5089888;27;20115;-84
2022/08/19 05:13:18;;;;;;;0.40;0.40;;;15.20;99.90;;;;;;5090060;27;20039;-83
2022/08/19 05:15:53;;;;;;;0.40;0.40;;;15.50;99.90;;;;;;5091312;27;20522;-84
2022/08/19 05:23:52;;;;;;;0.40;0.40;;;15.10;99.90;;;;;;5091256;27;19924;-84
2022/08/19 05:26:17;;;;;;;0.52;0.52;;;14.90;99.90;;;;;;5085277;28;20385;-83
2022/08/19 05:28:43;;;;;;;0.40;0.40;;;14.90;99.90;;;;;;5085893;28;20981;-83
2022/08/19 05:31:09;;;;;;;0.40;0.40;;;14.90;99.90;;;;;;5086387;28;20134;-83
2022/08/19 05:33:35;;;;;;;0.40;0.40;;;15.00;99.90;;;;;;5086769;28;20131;-82
2022/08/19 05:36:02;;;;;;;0.40;0.40;;;15.30;99.90;;;;;;5086383;28;20051;-83
2022/08/19 05:38:29;;;;;;;0.40;0.40;;;15.20;99.90;;;;;;5085978;28;20039;-83
2022/08/19 05:40:55;;;;;;;0.40;0.40;;;15.50;99.90;;;;;;5086844;28;20063;-83
2022/08/19 05:43:21;;;;;;;0.40;0.40;;;16.30;99.90;;;;;;5083285;28;20047;-83
2022/08/19 05:45:47;;;;;;;0.40;0.40;;;17.30;99.90;;;;;;5086275;28;20157;-83
2022/08/19 05:48:13;;;;;;;0.40;0.40;;;17.60;99.90;;;;;;5084462;28;20293;-83
2022/08/19 05:50:41;;;;;;;0.40;0.40;;;17.20;99.90;;;;;;5085491;28;20082;-82
2022/08/19 05:53:08;;;;;;;0.40;0.40;;;17.30;99.90;;;;;;5083879;28;20472;-83
2022/08/19 05:55:36;;;;;;;0.40;0.40;;;17.00;99.90;;;;;;5068864;28;20055;-82
2022/08/19 05:58:02;;;;;;;0.40;0.40;;;16.60;99.90;;;;;;5085467;28;20087;-83
2022/08/19 06:00:30;;;;;;;0.40;0.40;;;16.70;99.90;;;;;;5086381;28;20047;-83
2022/08/19 06:02:56;;;;;;;0.40;0.40;;;17.20;99.90;;;;;;5086449;28;20104;-84
2022/08/19 06:05:22;;;;;;;0.40;0.40;;;17.70;99.90;;;;;;5086215;28;20060;-83
2022/08/19 06:07:47;;;;;;;0.40;0.40;;;17.80;99.90;;;;;;5083952;28;20039;-82
2022/08/19 06:10:13;;;;;;;0.40;0.40;;;18.00;99.90;;;;;;5087498;28;20039;-82
2022/08/19 06:12:39;;;;;;;0.30;0.30;;;18.10;99.90;;;;;;5071638;28;20130;-81
2022/08/19 06:15:09;;;;;;;0.38;0.38;;;18.20;99.90;;;;;;5090225;28;20520;-84
2022/08/19 06:17:35;;;;;;;0.40;0.40;;;18.50;99.90;;;;;;5091601;28;20043;-82
2022/08/19 06:20:03;;;;;;;0.40;0.40;;;18.60;99.90;;;;;;5070286;28;20063;-82
2022/08/19 06:22:29;;;;;;;0.40;0.40;;;19.00;99.90;;;;;;5090674;28;20048;-83
2022/08/19 06:24:55;;;;;;;0.40;0.40;;;19.40;99.90;;;;;;5071926;28;20122;-81
2022/08/19 06:27:22;;;;;;;0.38;0.38;;;19.60;99.90;;;;;;5106544;27;21129;-82
2022/08/19 06:29:48;;;;;;;0.40;0.40;;;19.50;99.90;;;;;;5094698;27;20139;-82
2022/08/19 06:32:16;;;;;;;0.30;0.30;;;19.80;99.90;;;;;;5111614;27;20146;-82
2022/08/19 06:34:42;;;;;;;0.30;0.30;;;19.70;99.90;;;;;;5110372;27;20043;-82
2022/08/19 06:37:08;;;;;;;0.30;0.30;;;19.70;99.90;;;;;;5110007;27;20781;-84
2022/08/19 06:39:40;;;;;;;0.30;0.30;;;19.80;99.90;;;;;;5090419;27;20058;-83
2022/08/19 06:42:08;;;;;;;0.40;0.40;;;19.90;99.90;;;;;;5088826;27;20047;-82
2022/08/19 06:44:36;;;;;;;0.40;0.40;;;19.80;99.90;;;;;;5087047;27;20059;-83
2022/08/19 06:47:08;;;;;;;0.30;0.30;;;20.10;99.90;;;;;;5090050;27;20039;-82
2022/08/19 06:49:35;;;;;;;0.40;0.40;;;20.10;99.90;;;;;;5099097;27;20063;-82
2022/08/19 06:52:01;;;;;;;0.30;0.30;;;20.00;99.90;;;;;;5108638;27;20055;-81
2022/08/19 06:54:29;;;;;;;0.30;0.30;;;20.30;99.90;;;;;;5090969;27;21268;-86
2022/08/19 06:56:56;;;;;;;0.30;0.30;;;20.50;99.90;;;;;;5092647;27;20043;-83
2022/08/19 06:59:27;;;;;;;0.38;0.38;;;20.70;99.90;;;;;;5109545;27;20129;-83
2022/08/19 07:01:55;;;;;;;0.30;0.30;;;20.80;99.90;;;;;;5092993;27;20055;-82
2022/08/19 07:04:33;;;;;;;0.30;0.30;;;21.00;99.90;;;;;;5109565;27;20119;-82
2022/08/19 07:07:09;;;;;;;0.30;0.30;;;21.10;99.90;;;;;;5100972;27;20058;-82
2022/08/19 07:09:41;;;;;;;0.30;0.30;;;21.10;99.90;;;;;;5090270;27;20054;-82
2022/08/19 07:12:10;;;;;;;0.30;0.30;;;21.10;99.90;;;;;;5089302;27;20262;-82
2022/08/19 07:14:37;;;;;;;0.30;0.30;;;21.30;99.90;;;;;;5105762;27;20444;-84
2022/08/19 07:17:12;;;;;;;0.40;0.40;;;21.40;99.90;;;;;;5089793;27;20484;-84
2022/08/19 07:19:39;;;;;;;0.30;0.30;;;21.40;99.90;;;;;;5085314;27;20558;-83
2022/08/19 07:22:06;;;;;;;0.38;0.38;;;21.20;99.90;;;;;;5091090;27;20108;-84
2022/08/19 07:24:32;;;;;;;0.30;0.30;;;21.50;99.90;;;;;;5088293;27;20488;-83
2022/08/19 07:27:01;;;;;;;0.30;0.30;;;21.70;99.90;;;;;;5108417;27;20441;-82
2022/08/19 07:29:28;;;;;;;0.30;0.30;;;21.70;99.90;;;;;;5098094;27;20889;-84
2022/08/19 07:31:56;;;;;;;0.30;0.30;;;21.90;99.90;;;;;;5090236;27;20107;-84
2022/08/19 07:34:23;;;;;;;0.30;0.30;;;22.10;99.90;;;;;;5089993;27;21354;-83
2022/08/19 07:36:50;;;;;;;0.30;0.30;;;22.10;99.90;;;;;;5059195;27;20043;-84
2022/08/19 07:39:24;;;;;;;0.30;0.30;;;22.30;99.90;;;;;;5089649;27;20047;-84
2022/08/19 07:41:50;;;;;;;0.30;0.30;;;22.40;99.90;;;;;;5091906;27;20043;-82
2022/08/19 07:44:17;;;;;;;0.32;0.32;;;22.40;99.90;;;;;;5089308;27;20078;-83
2022/08/19 07:46:50;;;;;;;0.30;0.30;;;22.50;99.90;;;;;;5088687;27;20035;-83
2022/08/19 07:49:19;;;;;;;0.30;0.30;;;22.70;99.90;;;;;;5088844;27;20057;-82
2022/08/19 07:51:50;;;;;;;0.30;0.30;;;22.80;99.90;;;;;;5087796;27;20061;-82
2022/08/19 07:54:18;;;;;;;0.30;0.30;;;22.90;99.90;;;;;;5089006;27;20035;-83
2022/08/19 07:56:44;;;;;;;0.30;0.30;;;23.00;99.90;;;;;;5080609;27;20065;-84
2022/08/19 07:59:11;;;;;;;0.30;0.30;;;22.80;99.90;;;;;;5089491;27;20555;-83
2022/08/19 08:01:39;;;;;;;0.30;0.30;;;22.70;99.90;;;;;;5088586;27;20047;-83
2022/08/19 08:09:39;;;;;;;0.30;0.30;;;22.80;99.90;;;;;;5077388;27;20039;-83
2022/08/19 08:12:19;;;;;;;0.30;0.30;;;23.10;99.90;;;;;;5081436;27;20778;-81
2022/08/19 08:14:51;;;;;;;0.30;0.30;;;23.30;99.90;;;;;;5088221;27;20113;-82
2022/08/19 08:17:20;;;;;;;0.30;0.30;;;23.50;99.90;;;;;;5090170;27;20153;-83
2022/08/19 08:19:50;;;;;;;0.30;0.30;;;23.60;99.90;;;;;;5090691;27;20047;-83
2022/08/19 08:25:09;;;;;;;0.30;0.30;;;23.90;99.90;;;;;;5088839;27;20480;-83
2022/08/19 08:27:40;;;;;;;0.30;0.30;;;24.00;99.90;;;;;;5088852;27;20055;-84
2022/08/19 08:30:11;;;;;;;0.30;0.30;;;24.10;99.90;;;;;;5108650;27;20050;-82
2022/08/19 08:32:39;;;;;;;0.30;0.30;;;24.20;99.90;;;;;;5089412;27;20508;-81
2022/08/19 08:35:11;;;;;;;0.22;0.22;;;24.20;99.90;;;;;;5087408;27;20484;-83
2022/08/19 08:37:37;;;;;;;0.30;0.30;;;24.10;99.90;;;;;;5105021;27;20051;-84
2022/08/19 08:40:13;;;;;;;0.30;0.30;;;24.30;99.90;;;;;;5089521;27;20051;-81
2022/08/19 08:42:48;;;;;;;0.43;0.38;;;24.50;99.90;;;;;;5087175;27;20105;-82
2022/08/19 08:45:16;;;;;;;0.30;0.30;;;24.70;99.90;;;;;;5087508;27;20053;-82
2022/08/19 08:47:51;;;;;;;0.30;0.30;;;24.90;99.90;;;;;;5068031;27;20051;-82
2022/08/19 08:50:36;;;;;;;0.47;0.47;;;25.10;99.90;;;;;;5087473;27;20039;-82
2022/08/19 08:53:03;;;;;;;;;;;25.30;99.90;;;;;;5088455;27;20046;-83
2022/08/19 08:55:29;;;;;;;0.30;0.30;;;25.50;99.90;;;;;;5090161;27;20040;-82
2022/08/19 08:58:24;;;;;;;0.30;0.30;;;25.60;99.90;;;;;;5088783;27;20043;-83
2022/08/19 09:00:50;;;;;;;;;;;25.70;99.90;;;;;;5089060;27;20646;-86
2022/08/19 09:03:26;;;;;;;0.30;0.30;;;25.80;99.90;;;;;;5088903;27;19969;-82
2022/08/19 09:06:27;;;;;;;0.30;0.30;;;25.90;99.90;;;;;;5086643;27;20054;-83
2022/08/19 09:08:59;;;;;;;0.22;0.22;;;26.10;99.90;;;;;;5092353;27;20051;-83
2022/08/19 09:11:56;;;;;;;0.20;0.20;;;26.10;99.90;;;;;;5087581;27;20082;-82
2022/08/19 09:14:22;;;;;;;0.30;0.30;;;26.10;99.90;;;;;;5093389;27;20149;-82
2022/08/19 09:16:49;;;;;;;0.28;0.28;;;26.30;99.90;;;;;;5087547;28;20547;-84
2022/08/19 09:19:17;;;;;;;0.30;0.30;;;26.30;99.90;;;;;;5088013;27;20047;-82
2022/08/19 09:21:43;;;;;;;0.20;0.20;;;26.50;99.90;;;;;;5089405;27;20048;-83
2022/08/19 09:24:09;;;;;;;0.20;0.20;;;26.60;99.90;;;;;;5089959;28;20070;-82
2022/08/19 09:26:34;;;;;;;0.40;0.40;;;26.70;99.90;;;;;;5107258;27;20057;-82
2022/08/19 09:29:04;;;;;;;0.30;0.30;;;26.80;99.90;;;;;;5089642;28;20949;-82
2022/08/19 09:31:32;;;;;;;0.30;0.30;;;27.00;99.90;;;;;;5088096;28;20871;-82
2022/08/19 09:33:59;;;;;;;0.20;0.20;;;26.80;99.90;;;;;;5089485;28;20108;-82
2022/08/19 09:36:28;;;;;;;0.30;0.30;;;26.90;99.90;;;;;;5108040;28;20387;-83
2022/08/19 09:38:55;;;;;;;0.22;0.22;;;26.80;99.90;;;;;;5070221;28;20055;-83
2022/08/19 09:41:23;;;;;;;0.20;0.20;;;26.80;99.90;;;;;;5084810;28;20039;-85
2022/08/19 09:43:52;;;;;;;0.28;0.28;;;26.90;99.90;;;;;;5089982;27;20053;-86
2022/08/19 09:46:20;;;;;;;0.20;0.20;;;27.00;99.90;;;;;;5111734;27;20404;-84
2022/08/19 09:48:48;;;;;;;0.20;0.20;;;27.20;99.90;;;;;;5090457;27;20043;-82
2022/08/19 09:51:18;;;;;;;0.20;0.20;;;27.40;99.90;;;;;;5109181;27;20130;-81
2022/08/19 09:53:45;;;;;;;0.20;0.20;;;27.10;99.90;;;;;;5073135;27;20058;-82
2022/08/19 09:56:12;;;;;;;0.20;0.20;;;26.90;99.90;;;;;;5076055;27;20134;-82
2022/08/19 09:58:39;;;;;;;0.20;0.20;;;27.10;99.90;;;;;;5091105;27;20059;-82
2022/08/19 10:01:06;;;;;;;0.30;0.30;;;27.30;99.90;;;;;;5090591;27;20124;-82
2022/08/19 10:03:36;;;;;;;0.30;0.30;;;27.00;99.90;;;;;;5091272;27;20046;-82
2022/08/19 10:06:05;;;;;;;0.28;0.28;;;26.90;99.90;;;;;;5107357;27;20051;-84
2022/08/19 10:08:34;;;;;;;0.30;0.30;;;27.30;99.90;;;;;;5109269;27;20092;-82
2022/08/19 10:11:01;;;;;;;0.30;0.30;;;27.50;99.90;;;;;;5092239;27;20047;-83
2022/08/19 10:13:29;;;;;;;0.20;0.20;;;27.70;99.90;;;;;;5090650;27;20046;-83
2022/08/19 10:16:02;;;;;;;0.30;0.30;;;27.70;99.90;;;;;;5091646;27;20059;-82
2022/08/19 10:18:27;;;;;;;0.20;0.20;;;27.40;99.90;;;;;;5088453;27;20051;-83
2022/08/19 10:21:09;;;;;;;0.75;0.30;;;28.00;99.90;;;;;;5112594;27;20620;-82
2022/08/19 10:23:37;;;;;;;0.25;0.25;;;28.10;99.90;;;;;;5090301;27;20484;-83
2022/08/19 10:26:05;;;;;;;0.22;0.22;;;28.30;99.90;;;;;;5091906;27;20059;-82
2022/08/19 10:28:37;;;;;;;0.30;0.30;;;28.10;99.90;;;;;;5091243;27;20130;-84
2022/08/19 10:31:11;;;;;;;0.20;0.20;;;28.10;99.90;;;;;;5075643;27;20047;-82
2022/08/19 10:33:38;;;;;;;0.25;0.25;;;28.40;99.90;;;;;;5089890;27;20572;-84
2022/08/19 10:36:11;;;;;;;0.30;0.30;;;28.70;99.90;;;;;;5091272;27;20059;-84
2022/08/19 10:38:37;;;;;;;0.20;0.20;;;28.80;99.90;;;;;;5088043;27;20206;-82
2022/08/19 10:41:12;;;;;;;0.30;0.30;;;28.80;99.90;;;;;;5090554;27;20073;-82
2022/08/19 10:43:39;;;;;;;0.30;0.30;;;29.20;99.90;;;;;;5092516;27;20131;-85
2022/08/19 10:46:15;;;;;;;0.30;0.30;;;29.10;99.90;;;;;;5074018;27;21155;-85
2022/08/19 10:48:42;;;;;;;0.20;0.20;;;29.30;99.90;;;;;;5073591;27;20086;-84
2022/08/19 10:53:52;;;;;;;0.25;0.25;;;29.10;99.90;;;;;;5117168;27;20459;-83
2022/08/19 10:59:03;;;;;;;0.30;0.30;;;29.30;99.90;;;;;;5090313;27;20047;-84
2022/08/19 11:01:31;;;;;;;0.20;0.20;;;29.60;99.90;;;;;;5092902;27;20043;-83
2022/08/19 11:03:57;;;;;;;0.20;0.20;;;29.60;99.90;;;;;;5093664;27;20055;-84
2022/08/19 11:06:27;;;;;;;0.30;0.30;;;29.70;99.90;;;;;;5089575;27;20579;-83
2022/08/19 11:08:54;;;;;;;0.20;0.20;;;29.90;99.90;;;;;;5076049;27;20523;-84
2022/08/19 11:11:21;;;;;;;0.20;0.20;;;29.80;99.90;;;;;;5092112;27;20859;-84
2022/08/19 11:13:47;;;;;;;0.22;0.22;;;29.90;99.90;;;;;;5090820;27;20074;-86
2022/08/19 11:16:16;;;;;;;0.28;0.28;;;30.00;99.90;;;;;;5088257;27;21164;-85
2022/08/19 11:18:45;;;;;;;0.30;0.30;;;30.00;99.90;;;;;;5087069;27;20732;-85
2022/08/19 11:21:19;;;;;;;0.40;0.40;;;30.10;99.90;;;;;;5087789;27;20043;-84
2022/08/19 11:23:45;;;;;;;;;;;29.90;99.90;;;;;;5094042;27;20075;-85
2022/08/19 11:26:11;;;;;;;0.30;0.30;;;30.00;99.90;;;;;;5090070;27;19971;-85
2022/08/19 11:28:37;;;;;;;0.30;0.30;;;30.00;99.90;;;;;;5086470;27;20063;-83
2022/08/19 11:31:03;;;;;;;0.25;0.25;;;30.20;99.90;;;;;;5091059;27;20046;-85
2022/08/19 11:33:30;;;;;;;0.20;0.20;;;30.10;99.90;;;;;;5074660;27;20122;-83
2022/08/19 11:36:00;;;;;;;0.25;0.25;;;30.30;99.90;;;;;;5089025;27;20500;-81
2022/08/19 11:38:26;;;;;;;0.20;0.20;;;30.10;99.90;;;;;;5090131;27;20075;-83
2022/08/19 11:41:01;;;;;;;0.20;0.20;;;29.90;99.90;;;;;;5091336;27;20058;-82
2022/08/19 11:43:28;;;;;;;0.20;0.20;;;30.20;99.90;;;;;;5089013;27;20052;-84
2022/08/19 11:45:55;;;;;;;0.30;0.30;;;30.20;99.90;;;;;;5091157;27;20942;-84
2022/08/19 11:48:22;;;;;;;0.30;0.30;;;30.60;99.90;;;;;;5107383;27;20047;-85
2022/08/19 11:50:55;;;;;;;0.20;0.20;;;30.60;99.90;;;;;;5088821;27;20058;-85
2022/08/19 11:53:21;;;;;;;0.20;0.20;;;30.80;99.90;;;;;;5110373;27;20045;-86
2022/08/19 11:55:53;;;;;;;0.20;0.20;;;30.80;99.90;;;;;;5072942;27;20047;-81
2022/08/19 11:58:19;;;;;;;0.20;0.20;;;30.70;99.90;;;;;;5104846;27;20091;-85
2022/08/19 12:00:45;;;;;;;0.20;0.20;;;30.70;99.90;;;;;;5090577;27;20051;-81
2022/08/19 12:03:12;;;;;;;0.25;0.25;;;30.80;99.90;;;;;;5088668;27;20074;-85
2022/08/19 12:05:39;;;;;;;0.30;0.30;;;30.40;99.90;;;;;;5089276;27;20770;-84
2022/08/19 12:08:05;;;;;;;0.20;0.20;;;30.10;99.90;;;;;;5090824;27;20035;-84
2022/08/19 12:10:32;;;;;;;0.30;0.30;;;30.20;99.90;;;;;;5110650;27;20055;-83
2022/08/19 12:12:58;;;;;;;0.40;0.40;;;29.50;99.90;;;;;;5089786;27;20166;-83
2022/08/19 12:15:23;;;;;;;0.20;0.20;;;29.30;99.90;;;;;;5089333;27;20065;-83
2022/08/19 12:17:49;;;;;;;0.20;0.20;;;29.50;99.90;;;;;;5090169;27;20050;-83
2022/08/19 12:20:16;;;;;;;0.20;0.20;;;29.80;99.90;;;;;;5090214;27;20092;-81
2022/08/19 12:22:43;;;;;;;0.30;0.30;;;30.00;99.90;;;;;;5109075;27;20051;-82
2022/08/19 12:25:11;;;;;;;0.20;0.20;;;30.20;99.90;;;;;;5090117;27;20421;-82
2022/08/19 12:27:38;;;;;;;0.30;0.30;;;30.00;99.90;;;;;;5107326;27;20059;-81
2022/08/19 12:30:06;;;;;;;0.30;0.30;;;29.20;99.90;;;;;;5090712;27;20055;-82
2022/08/19 12:32:32;;;;;;;0.25;0.25;;;29.00;99.90;;;;;;5096723;27;20357;-81
2022/08/19 12:34:57;;;;;;;0.20;0.20;;;29.30;99.90;;;;;;5090655;27;20089;-81
2022/08/19 12:37:23;;;;;;;0.20;0.20;;;29.40;99.90;;;;;;5091820;27;20480;-85
2022/08/19 12:39:49;;;;;;;0.30;0.30;;;29.60;99.90;;;;;;5089000;27;20066;-82
2022/08/19 12:42:15;;;;;;;0.30;0.30;;;30.10;99.90;;;;;;5092712;27;20284;-82
2022/08/19 12:44:42;;;;;;;0.20;0.20;;;30.20;99.90;;;;;;5072452;27;20047;-81
2022/08/19 12:47:10;;;;;;;0.20;0.20;;;29.60;99.90;;;;;;5091929;27;20039;-81
2022/08/19 12:49:36;;;;;;;0.30;0.30;;;29.50;99.90;;;;;;5108398;27;20057;-81
2022/08/19 12:52:07;;;;;;;0.22;0.22;;;29.70;99.90;;;;;;5090435;27;20039;-82
2022/08/19 12:54:34;;;;;;;0.20;0.20;;;30.10;99.90;;;;;;5092379;27;20038;-82
2022/08/19 12:57:00;;;;;;;0.20;0.20;;;30.30;99.90;;;;;;5108663;27;20047;-86
2022/08/19 12:59:27;;;;;;;0.30;0.30;;;30.20;99.90;;;;;;5088512;27;20046;-82
2022/08/19 13:01:53;;;;;;;0.22;0.22;;;30.30;99.90;;;;;;5110292;27;20108;-81
2022/08/19 13:04:19;;;;;;;0.30;0.30;;;29.70;99.90;;;;;;5089953;27;20442;-83
2022/08/19 13:06:44;;;;;;;0.20;0.20;;;29.10;99.90;;;;;;5089491;27;20886;-82
2022/08/19 13:09:10;;;;;;;0.30;0.30;;;28.90;99.90;;;;;;5089247;27;20122;-81
2022/08/19 13:11:37;;;;;;;0.30;0.30;;;28.60;99.90;;;;;;5090624;27;20051;-84
2022/08/19 13:14:04;;;;;;;0.20;0.20;;;28.30;99.90;;;;;;5074195;27;20039;-84
2022/08/19 13:16:30;;;;;;;0.30;0.30;;;28.00;99.90;;;;;;5087530;28;20051;-84